createdAt,value
2018-02-14T00:00:12.266Z,999.85
2018-02-14T00:01:12.279Z,999.83
2018-02-14T00:02:12.286Z,999.79
2018-02-14T00:03:12.297Z,999.81
2018-02-14T00:04:12.311Z,999.86
2018-02-14T00:05:12.319Z,999.81
2018-02-14T00:06:12.323Z,999.80
2018-02-14T00:07:12.336Z,999.79
2018-02-14T00:08:12.348Z,999.85
2018-02-14T00:09:12.359Z,999.79
2018-02-14T00:10:12.365Z,999.79
2018-02-14T00:11:12.374Z,999.78
2018-02-14T00:12:12.384Z,999.80
2018-02-14T00:13:12.398Z,999.84
2018-02-14T00:14:12.406Z,999.80
2018-02-14T00:15:12.418Z,999.78
2018-02-14T00:16:12.442Z,999.78
2018-02-14T00:17:12.436Z,999.77
2018-02-14T00:18:12.447Z,999.78
2018-02-14T00:19:12.458Z,999.80
2018-02-14T00:20:12.466Z,999.80
2018-02-14T00:21:12.477Z,999.84
2018-02-14T00:22:12.486Z,999.83
2018-02-14T00:23:12.496Z,999.80
2018-02-14T00:24:12.504Z,999.84
2018-02-14T00:25:12.515Z,999.82
2018-02-14T00:26:12.524Z,999.84
2018-02-14T00:27:12.544Z,999.87
2018-02-14T00:28:12.545Z,999.81
2018-02-14T00:29:12.558Z,999.83
2018-02-14T00:30:12.569Z,999.85
2018-02-14T00:31:12.575Z,999.84
2018-02-14T00:32:12.601Z,999.85
2018-02-14T00:33:12.594Z,999.86
2018-02-14T00:34:12.602Z,999.90
2018-02-14T00:35:12.620Z,999.87
2018-02-14T00:36:12.625Z,999.90
2018-02-14T00:37:12.641Z,999.92
2018-02-14T00:38:12.651Z,999.92
2018-02-14T00:39:12.660Z,999.93
2018-02-14T00:40:12.665Z,999.93
2018-02-14T00:41:12.674Z,999.94
2018-02-14T00:42:12.686Z,999.90
2018-02-14T00:43:12.693Z,999.94
2018-02-14T00:44:12.705Z,999.91
2018-02-14T00:45:12.714Z,999.95
2018-02-14T00:46:12.723Z,999.91
2018-02-14T00:47:12.734Z,999.95
2018-02-14T00:48:12.742Z,999.96
2018-02-14T00:49:12.754Z,999.97
2018-02-14T00:50:12.766Z,999.92
2018-02-14T00:51:12.776Z,999.97
2018-02-14T00:52:12.784Z,1000.02
2018-02-14T00:53:12.794Z,999.99
2018-02-14T00:54:12.810Z,999.99
2018-02-14T00:55:12.809Z,999.99
2018-02-14T00:56:12.823Z,999.98
2018-02-14T00:57:12.831Z,999.96
2018-02-14T00:58:12.841Z,999.98
2018-02-14T00:59:12.847Z,999.97
2018-02-14T01:00:12.862Z,1000.02
2018-02-14T01:01:12.882Z,1000.03
2018-02-14T01:02:12.882Z,1000.02
2018-02-14T01:03:12.887Z,1000.05
2018-02-14T01:04:12.918Z,1000.03
2018-02-14T01:05:12.907Z,1000.07
2018-02-14T01:06:12.921Z,1000.07
2018-02-14T01:07:12.926Z,1000.01
2018-02-14T01:08:12.941Z,1000.10
2018-02-14T01:09:12.947Z,1000.07
2018-02-14T01:10:12.960Z,1000.09
2018-02-14T01:11:12.966Z,1000.09
2018-02-14T01:12:12.979Z,1000.08
2018-02-14T01:13:12.987Z,1000.08
2018-02-14T01:14:13.033Z,1000.11
2018-02-14T01:15:13.009Z,1000.13
2018-02-14T01:16:13.018Z,1000.12
2018-02-14T01:17:13.030Z,1000.12
2018-02-14T01:18:13.040Z,1000.11
2018-02-14T01:19:13.048Z,1000.10
2018-02-14T01:20:13.057Z,1000.11
2018-02-14T01:21:13.065Z,1000.09
2018-02-14T01:22:13.075Z,1000.13
2018-02-14T01:23:13.082Z,1000.12
2018-02-14T01:24:13.099Z,1000.12
2018-02-14T01:25:13.102Z,1000.12
2018-02-14T01:26:13.116Z,1000.13
2018-02-14T01:27:13.122Z,1000.14
2018-02-14T01:28:13.140Z,1000.14
2018-02-14T01:29:13.143Z,1000.16
2018-02-14T01:30:13.155Z,1000.15
2018-02-14T01:31:13.166Z,1000.13
2018-02-14T01:32:13.174Z,1000.17
2018-02-14T01:33:13.184Z,1000.19
2018-02-14T01:34:13.197Z,1000.21
2018-02-14T01:35:13.200Z,1000.21
2018-02-14T01:36:13.214Z,1000.23
2018-02-14T01:37:13.220Z,1000.25
2018-02-14T01:38:13.234Z,1000.26
2018-02-14T01:39:13.241Z,1000.29
2018-02-14T01:40:13.248Z,1000.26
2018-02-14T01:41:13.260Z,1000.27
2018-02-14T01:42:13.273Z,1000.29
2018-02-14T01:43:13.278Z,1000.35
2018-02-14T01:44:13.288Z,1000.35
2018-02-14T01:45:13.302Z,1000.35
2018-02-14T01:46:13.308Z,1000.36
2018-02-14T01:47:13.323Z,1000.38
2018-02-14T01:48:13.329Z,1000.42
2018-02-14T01:49:13.338Z,1000.41
2018-02-14T01:50:13.349Z,1000.43
2018-02-14T01:51:13.358Z,1000.45
2018-02-14T01:52:13.367Z,1000.51
2018-02-14T01:53:13.375Z,1000.51
2018-02-14T01:54:13.390Z,1000.51
2018-02-14T01:55:13.395Z,1000.51
2018-02-14T01:56:13.405Z,1000.50
2018-02-14T01:57:13.415Z,1000.49
2018-02-14T01:58:13.427Z,1000.47
2018-02-14T01:59:13.432Z,1000.49
2018-02-14T02:00:13.441Z,1000.50
2018-02-14T02:01:13.450Z,1000.50
2018-02-14T02:02:13.462Z,1000.51
2018-02-14T02:03:13.478Z,1000.52
2018-02-14T02:04:13.481Z,1000.53
2018-02-14T02:05:13.491Z,1000.55
2018-02-14T02:06:13.496Z,1000.56
2018-02-14T02:07:13.509Z,1000.63
2018-02-14T02:08:13.519Z,1000.62
2018-02-14T02:09:13.530Z,1000.66
2018-02-14T02:10:13.538Z,1000.66
2018-02-14T02:11:13.550Z,1000.67
2018-02-14T02:12:13.554Z,1000.67
2018-02-14T02:13:13.569Z,1000.72
2018-02-14T02:14:13.575Z,1000.71
2018-02-14T02:15:13.587Z,1000.72
2018-02-14T02:16:13.592Z,1000.70
2018-02-14T02:17:13.604Z,1000.67
2018-02-14T02:18:13.626Z,1000.72
2018-02-14T02:19:13.625Z,1000.74
2018-02-14T02:20:13.635Z,1000.73
2018-02-14T02:21:13.648Z,1000.73
2018-02-14T02:22:13.656Z,1000.71
2018-02-14T02:23:13.662Z,1000.72
2018-02-14T02:24:13.672Z,1000.74
2018-02-14T02:25:13.681Z,1000.72
2018-02-14T02:26:13.692Z,1000.72
2018-02-14T02:27:13.699Z,1000.71
2018-02-14T02:28:13.709Z,1000.71
2018-02-14T02:29:13.715Z,1000.71
2018-02-14T02:30:13.729Z,1000.73
2018-02-14T02:31:13.735Z,1000.72
2018-02-14T02:32:13.747Z,1000.72
2018-02-14T02:33:13.753Z,1000.74
2018-02-14T02:34:13.770Z,1000.75
2018-02-14T02:35:13.773Z,1000.79
2018-02-14T02:36:13.791Z,1000.78
2018-02-14T02:37:13.793Z,1000.75
2018-02-14T02:38:13.814Z,1000.75
2018-02-14T02:39:13.810Z,1000.78
2018-02-14T02:40:13.823Z,1000.79
2018-02-14T02:41:13.835Z,1000.75
2018-02-14T02:42:13.842Z,1000.78
2018-02-14T02:43:13.852Z,1000.80
2018-02-14T02:44:13.858Z,1000.81
2018-02-14T02:45:13.867Z,1000.79
2018-02-14T02:46:13.878Z,1000.80
2018-02-14T02:47:13.886Z,1000.82
2018-02-14T02:48:13.895Z,1000.83
2018-02-14T02:49:13.907Z,1000.80
2018-02-14T02:50:13.918Z,1000.79
2018-02-14T02:51:13.923Z,1000.83
2018-02-14T02:52:13.934Z,1000.83
2018-02-14T02:53:13.947Z,1000.82
2018-02-14T02:54:13.956Z,1000.78
2018-02-14T02:55:13.964Z,1000.82
2018-02-14T02:56:13.972Z,1000.83
2018-02-14T02:57:13.984Z,1000.85
2018-02-14T02:58:13.991Z,1000.85
2018-02-14T02:59:13.999Z,1000.87
2018-02-14T03:00:14.010Z,1000.88
2018-02-14T03:01:14.022Z,1000.91
2018-02-14T03:02:14.029Z,1000.93
2018-02-14T03:03:14.036Z,1000.89
2018-02-14T03:04:14.050Z,1000.87
2018-02-14T03:05:14.054Z,1000.89
2018-02-14T03:06:14.069Z,1000.89
2018-02-14T03:07:14.072Z,1000.89
2018-02-14T03:08:14.088Z,1000.93
2018-02-14T03:09:14.093Z,1000.91
2018-02-14T03:10:14.112Z,1000.93
2018-02-14T03:11:14.110Z,1000.91
2018-02-14T03:12:14.123Z,1000.91
2018-02-14T03:13:14.128Z,1000.94
2018-02-14T03:14:14.148Z,1000.96
2018-02-14T03:15:14.148Z,1000.96
2018-02-14T03:16:14.155Z,1000.93
2018-02-14T03:17:14.170Z,1000.94
2018-02-14T03:18:14.176Z,1000.97
2018-02-14T03:19:14.185Z,1000.95
2018-02-14T03:20:14.192Z,1000.97
2018-02-14T03:21:14.201Z,1001.00
2018-02-14T03:22:14.213Z,1000.96
2018-02-14T03:23:14.352Z,1000.98
2018-02-14T03:24:14.231Z,1000.99
2018-02-14T03:25:14.240Z,1001.00
2018-02-14T03:26:14.256Z,1000.98
2018-02-14T03:27:14.261Z,1000.96
2018-02-14T03:28:14.279Z,1000.97
2018-02-14T03:29:14.276Z,1000.97
2018-02-14T03:30:14.284Z,1000.95
2018-02-14T03:31:14.297Z,1000.97
2018-02-14T03:32:14.307Z,1000.96
2018-02-14T03:33:14.314Z,1000.97
2018-02-14T03:34:14.322Z,1000.97
2018-02-14T03:35:14.333Z,1000.97
2018-02-14T03:36:14.338Z,1000.95
2018-02-14T03:37:14.352Z,1000.98
2018-02-14T03:38:14.359Z,1001.00
2018-02-14T03:39:14.369Z,1000.97
2018-02-14T03:40:14.385Z,1000.98
2018-02-14T03:41:14.385Z,1000.97
2018-02-14T03:42:14.399Z,1001.00
2018-02-14T03:43:14.407Z,1001.05
2018-02-14T03:44:14.414Z,1001.01
2018-02-14T03:45:14.423Z,1001.00
2018-02-14T03:46:14.433Z,1001.03
2018-02-14T03:47:14.443Z,1001.09
2018-02-14T03:48:14.450Z,1001.05
2018-02-14T03:49:14.460Z,1001.09
2018-02-14T03:50:14.474Z,1001.09
2018-02-14T03:51:14.492Z,1001.10
2018-02-14T03:52:14.488Z,1001.10
2018-02-14T03:53:14.496Z,1001.11
2018-02-14T03:54:14.517Z,1001.12
2018-02-14T03:55:14.512Z,1001.13
2018-02-14T03:56:14.526Z,1001.09
2018-02-14T03:57:14.534Z,1001.12
2018-02-14T03:58:14.539Z,1001.13
2018-02-14T03:59:14.548Z,1001.11
2018-02-14T04:00:14.562Z,1001.12
2018-02-14T04:01:14.569Z,1001.14
2018-02-14T04:02:14.583Z,1001.14
2018-02-14T04:03:14.585Z,1001.14
2018-02-14T04:04:14.595Z,1001.17
2018-02-14T04:05:14.606Z,1001.19
2018-02-14T04:06:14.614Z,1001.26
2018-02-14T04:07:14.623Z,1001.24
2018-02-14T04:08:14.630Z,1001.25
2018-02-14T04:09:14.638Z,1001.26
2018-02-14T04:10:14.651Z,1001.28
2018-02-14T04:11:14.662Z,1001.29
2018-02-14T04:12:14.668Z,1001.34
2018-02-14T04:13:14.679Z,1001.34
2018-02-14T04:14:14.691Z,1001.31
2018-02-14T04:15:14.697Z,1001.31
2018-02-14T04:16:14.703Z,1001.36
2018-02-14T04:17:14.716Z,1001.36
2018-02-14T04:18:14.720Z,1001.37
2018-02-14T04:19:14.730Z,1001.41
2018-02-14T04:20:14.744Z,1001.42
2018-02-14T04:21:14.750Z,1001.43
2018-02-14T04:22:14.761Z,1001.45
2018-02-14T04:23:14.768Z,1001.44
2018-02-14T04:24:14.779Z,1001.43
2018-02-14T04:25:14.786Z,1001.49
2018-02-14T04:26:14.801Z,1001.43
2018-02-14T04:27:14.803Z,1001.45
2018-02-14T04:28:14.815Z,1001.45
2018-02-14T04:29:14.824Z,1001.43
2018-02-14T04:30:14.830Z,1001.45
2018-02-14T04:31:14.839Z,1001.43
2018-02-14T04:32:14.847Z,1001.46
2018-02-14T04:33:14.860Z,1001.43
2018-02-14T04:34:14.866Z,1001.47
2018-02-14T04:35:14.874Z,1001.49
2018-02-14T04:36:14.885Z,1001.50
2018-02-14T04:37:14.892Z,1001.51
2018-02-14T04:38:14.903Z,1001.52
2018-02-14T04:39:14.909Z,1001.55
2018-02-14T04:40:14.920Z,1001.60
2018-02-14T04:41:14.927Z,1001.59
2018-02-14T04:42:14.936Z,1001.63
2018-02-14T04:43:14.945Z,1001.65
2018-02-14T04:44:14.955Z,1001.64
2018-02-14T04:45:14.964Z,1001.64
2018-02-14T04:46:14.978Z,1001.67
2018-02-14T04:47:14.982Z,1001.69
2018-02-14T04:48:14.989Z,1001.69
2018-02-14T04:49:15.003Z,1001.71
2018-02-14T04:50:15.028Z,1001.70
2018-02-14T04:51:15.021Z,1001.69
2018-02-14T04:52:15.027Z,1001.69
2018-02-14T04:53:15.037Z,1001.72
2018-02-14T04:54:15.044Z,1001.73
2018-02-14T04:55:15.054Z,1001.72
2018-02-14T04:56:15.061Z,1001.74
2018-02-14T04:57:15.072Z,1001.72
2018-02-14T04:58:15.081Z,1001.75
2018-02-14T04:59:15.101Z,1001.72
2018-02-14T05:00:15.108Z,1001.75
2018-02-14T05:01:15.108Z,1001.79
2018-02-14T05:02:15.115Z,1001.75
2018-02-14T05:03:15.126Z,1001.77
2018-02-14T05:04:15.175Z,1001.78
2018-02-14T05:05:15.144Z,1001.78
2018-02-14T05:06:15.163Z,1001.82
2018-02-14T05:07:15.159Z,1001.82
2018-02-14T05:08:15.169Z,1001.80
2018-02-14T05:09:15.179Z,1001.80
2018-02-14T05:10:15.186Z,1001.81
2018-02-14T05:11:15.193Z,1001.86
2018-02-14T05:12:15.205Z,1001.85
2018-02-14T05:13:15.214Z,1001.87
2018-02-14T05:14:15.225Z,1001.88
2018-02-14T05:15:15.230Z,1001.88
2018-02-14T05:16:15.243Z,1001.88
2018-02-14T05:17:15.251Z,1001.89
2018-02-14T05:18:15.267Z,1001.88
2018-02-14T05:19:15.272Z,1001.89
2018-02-14T05:20:15.280Z,1001.91
2018-02-14T05:21:15.286Z,1001.88
2018-02-14T05:22:15.297Z,1001.94
2018-02-14T05:23:15.303Z,1001.95
2018-02-14T05:24:15.314Z,1001.93
2018-02-14T05:25:15.322Z,1001.94
2018-02-14T05:26:15.331Z,1001.97
2018-02-14T05:27:15.339Z,1001.96
2018-02-14T05:28:15.348Z,1001.97
2018-02-14T05:29:15.356Z,1001.95
2018-02-14T05:30:15.366Z,1001.96
2018-02-14T05:31:15.372Z,1002.02
2018-02-14T05:32:15.391Z,1001.99
2018-02-14T05:33:15.394Z,1001.96
2018-02-14T05:34:15.403Z,1001.99
2018-02-14T05:35:15.415Z,1002.02
2018-02-14T05:36:15.440Z,1002.03
2018-02-14T05:37:15.431Z,1001.96
2018-02-14T05:38:15.439Z,1001.95
2018-02-14T05:39:15.446Z,1001.99
2018-02-14T05:40:15.464Z,1001.99
2018-02-14T05:41:15.465Z,1002.01
2018-02-14T05:42:15.471Z,1001.99
2018-02-14T05:43:15.479Z,1001.95
2018-02-14T05:44:15.492Z,1001.98
2018-02-14T05:45:15.496Z,1001.99
2018-02-14T05:46:15.515Z,1002.00
2018-02-14T05:47:15.516Z,1001.99
2018-02-14T05:48:15.526Z,1001.98
2018-02-14T05:49:15.536Z,1001.98
2018-02-14T05:50:15.543Z,1002.02
2018-02-14T05:51:15.552Z,1002.01
2018-02-14T05:52:15.561Z,1002.02
2018-02-14T05:53:15.633Z,1002.04
2018-02-14T05:54:15.577Z,1002.05
2018-02-14T05:55:15.585Z,1002.09
2018-02-14T05:56:15.600Z,1002.05
2018-02-14T05:57:15.604Z,1002.10
2018-02-14T05:58:15.618Z,1002.16
2018-02-14T05:59:15.624Z,1002.12
2018-02-14T06:00:15.632Z,1002.13
2018-02-14T06:01:15.642Z,1002.18
2018-02-14T06:02:15.648Z,1002.16
2018-02-14T06:03:15.656Z,1002.15
2018-02-14T06:04:15.670Z,1002.18
2018-02-14T06:05:15.675Z,1002.17
2018-02-14T06:06:15.685Z,1002.11
2018-02-14T06:07:15.691Z,1002.16
2018-02-14T06:08:15.703Z,1002.15
2018-02-14T06:09:15.711Z,1002.14
2018-02-14T06:10:15.723Z,1002.16
2018-02-14T06:11:15.739Z,1002.19
2018-02-14T06:12:15.745Z,1002.21
2018-02-14T06:13:15.743Z,1002.22
2018-02-14T06:14:15.807Z,1002.25
2018-02-14T06:15:15.761Z,1002.27
2018-02-14T06:16:15.772Z,1002.28
2018-02-14T06:17:15.788Z,1002.28
2018-02-14T06:18:15.787Z,1002.33
2018-02-14T06:19:15.803Z,1002.34
2018-02-14T06:20:15.814Z,1002.33
2018-02-14T06:21:15.818Z,1002.35
2018-02-14T06:22:15.931Z,1002.37
2018-02-14T06:23:15.833Z,1002.39
2018-02-14T06:24:15.839Z,1002.35
2018-02-14T06:25:15.852Z,1002.39
2018-02-14T06:26:15.902Z,1002.34
2018-02-14T06:27:15.867Z,1002.36
2018-02-14T06:28:15.901Z,1002.40
2018-02-14T06:29:15.891Z,1002.40
2018-02-14T06:30:15.896Z,1002.41
2018-02-14T06:31:15.916Z,1002.42
2018-02-14T06:32:15.910Z,1002.44
2018-02-14T06:33:15.920Z,1002.44
2018-02-14T06:34:15.928Z,1002.45
2018-02-14T06:35:15.941Z,1002.46
2018-02-14T06:36:15.949Z,1002.47
2018-02-14T06:37:15.962Z,1002.48
2018-02-14T06:38:15.967Z,1002.48
2018-02-14T06:39:15.973Z,1002.46
2018-02-14T06:40:15.986Z,1002.51
2018-02-14T06:41:15.993Z,1002.50
2018-02-14T06:42:16.042Z,1002.58
2018-02-14T06:43:16.023Z,1002.60
2018-02-14T06:44:16.020Z,1002.57
2018-02-14T06:45:16.033Z,1002.61
2018-02-14T06:46:16.040Z,1002.67
2018-02-14T06:47:16.044Z,1002.68
2018-02-14T06:48:16.054Z,1002.69
2018-02-14T06:49:16.063Z,1002.71
2018-02-14T06:50:16.267Z,1002.74
2018-02-14T06:51:16.089Z,1002.79
2018-02-14T06:52:16.197Z,1002.82
2018-02-14T06:53:16.154Z,1002.82
2018-02-14T06:54:16.205Z,1002.85
2018-02-14T06:55:16.164Z,1002.85
2018-02-14T06:56:16.131Z,1002.86
2018-02-14T06:57:16.133Z,1002.88
2018-02-14T06:58:16.150Z,1002.90
2018-02-14T06:59:16.163Z,1002.89
2018-02-14T07:00:16.173Z,1002.88
2018-02-14T07:01:16.187Z,1002.90
2018-02-14T07:02:16.195Z,1002.94
2018-02-14T07:03:16.243Z,1002.95
2018-02-14T07:04:16.208Z,1002.97
2018-02-14T07:05:16.237Z,1002.96
2018-02-14T07:06:16.218Z,1002.95
2018-02-14T07:07:16.239Z,1002.98
2018-02-14T07:08:16.232Z,1003.01
2018-02-14T07:09:16.255Z,1003.01
2018-02-14T07:10:16.264Z,1002.99
2018-02-14T07:11:16.261Z,1002.99
2018-02-14T07:12:16.292Z,1003.02
2018-02-14T07:13:16.301Z,1003.00
2018-02-14T07:14:16.326Z,1003.00
2018-02-14T07:15:16.301Z,1003.00
2018-02-14T07:16:16.306Z,1002.98
2018-02-14T07:17:16.315Z,1003.08
2018-02-14T07:18:16.321Z,1003.19
2018-02-14T07:19:16.348Z,1003.28
2018-02-14T07:20:16.348Z,1003.39
2018-02-14T07:21:16.359Z,1003.40
2018-02-14T07:22:16.378Z,1003.41
2018-02-14T07:23:16.371Z,1003.45
2018-02-14T07:24:16.379Z,1003.42
2018-02-14T07:25:16.406Z,1003.46
2018-02-14T07:26:16.415Z,1003.49
2018-02-14T07:27:16.421Z,1003.52
2018-02-14T07:28:16.423Z,1003.37
2018-02-14T07:29:16.430Z,1003.51
2018-02-14T07:30:16.448Z,1003.49
2018-02-14T07:31:16.455Z,1003.51
2018-02-14T07:32:16.468Z,1003.54
2018-02-14T07:33:16.495Z,1003.52
2018-02-14T07:34:16.500Z,1003.48
2018-02-14T07:35:16.508Z,1003.51
2018-02-14T07:36:16.521Z,1003.58
2018-02-14T07:37:16.536Z,1003.55
2018-02-14T07:38:16.548Z,1003.53
2018-02-14T07:39:16.562Z,1003.53
2018-02-14T07:40:16.575Z,1003.56
2018-02-14T07:41:16.595Z,1003.56
2018-02-14T07:42:16.602Z,1003.53
2018-02-14T07:43:16.618Z,1003.56
2018-02-14T07:44:16.631Z,1003.57
2018-02-14T07:45:16.653Z,1003.58
2018-02-14T07:46:16.667Z,1003.59
2018-02-14T07:47:16.680Z,1003.62
2018-02-14T07:48:16.697Z,1003.66
2018-02-14T07:49:16.735Z,1003.63
2018-02-14T07:50:16.724Z,1003.66
2018-02-14T07:51:16.742Z,1003.68
2018-02-14T07:52:16.752Z,1003.70
2018-02-14T07:53:16.779Z,1003.71
2018-02-14T07:54:16.791Z,1003.69
2018-02-14T07:55:16.804Z,1003.72
2018-02-14T07:56:16.827Z,1003.71
2018-02-14T07:57:16.840Z,1003.70
2018-02-14T07:58:16.857Z,1003.68
2018-02-14T07:59:16.872Z,1003.69
2018-02-14T08:00:16.892Z,1003.67
2018-02-14T08:01:16.904Z,1003.63
2018-02-14T08:02:16.918Z,1003.71
2018-02-14T08:03:16.938Z,1003.77
2018-02-14T08:04:16.951Z,1003.76
2018-02-14T08:05:16.977Z,1003.82
2018-02-14T08:06:16.994Z,1003.87
2018-02-14T08:07:17.008Z,1003.86
2018-02-14T08:08:17.028Z,1003.93
2018-02-14T08:09:17.039Z,1003.95
2018-02-14T08:10:17.062Z,1003.93
2018-02-14T08:11:17.072Z,1003.98
2018-02-14T08:12:17.092Z,1003.91
2018-02-14T08:13:17.110Z,1003.94
2018-02-14T08:14:17.127Z,1003.97
2018-02-14T08:15:17.145Z,1003.94
2018-02-14T08:16:17.165Z,1003.93
2018-02-14T08:17:17.180Z,1003.93
2018-02-14T08:18:17.199Z,1003.91
2018-02-14T08:19:17.240Z,1003.94
2018-02-14T08:20:17.234Z,1003.92
2018-02-14T08:21:17.252Z,1003.95
2018-02-14T08:22:17.272Z,1003.97
2018-02-14T08:23:17.296Z,1004.00
2018-02-14T08:24:17.305Z,1003.93
2018-02-14T08:25:17.321Z,1003.96
2018-02-14T08:26:17.338Z,1003.95
2018-02-14T08:27:17.363Z,1003.96
2018-02-14T08:28:17.379Z,1003.99
2018-02-14T08:29:17.396Z,1004.00
2018-02-14T08:30:17.411Z,1003.96
2018-02-14T08:31:17.429Z,1003.97
2018-02-14T08:32:17.445Z,1003.98
2018-02-14T08:33:17.468Z,1003.97
2018-02-14T08:34:17.489Z,1003.97
2018-02-14T08:35:17.500Z,1003.96
2018-02-14T08:36:17.533Z,1003.96
2018-02-14T08:37:17.538Z,1003.98
2018-02-14T08:38:17.557Z,1003.98
2018-02-14T08:39:17.575Z,1003.99
2018-02-14T08:40:17.593Z,1003.90
2018-02-14T08:41:17.611Z,1003.90
2018-02-14T08:42:17.628Z,1003.95
2018-02-14T08:43:17.642Z,1003.90
2018-02-14T08:44:17.662Z,1003.84
2018-02-14T08:45:17.675Z,1003.88
2018-02-14T08:46:17.692Z,1003.89
2018-02-14T08:47:17.709Z,1003.88
2018-02-14T08:48:17.730Z,1003.85
2018-02-14T08:49:17.742Z,1003.85
2018-02-14T08:50:17.757Z,1003.91
2018-02-14T08:51:17.774Z,1003.90
2018-02-14T08:52:17.787Z,1003.90
2018-02-14T08:53:17.815Z,1003.96
2018-02-14T08:54:17.822Z,1003.99
2018-02-14T08:55:17.833Z,1004.03
2018-02-14T08:56:17.851Z,1004.02
2018-02-14T08:57:17.875Z,1004.01
2018-02-14T08:58:17.885Z,1004.04
2018-02-14T08:59:17.895Z,1004.05
2018-02-14T09:00:17.904Z,1004.03
2018-02-14T09:01:17.923Z,1004.01
2018-02-14T09:02:17.938Z,1004.04
2018-02-14T09:03:17.948Z,1004.04
2018-02-14T09:04:17.970Z,1004.11
2018-02-14T09:05:17.976Z,1004.09
2018-02-14T09:06:17.990Z,1004.08
2018-02-14T09:07:18.007Z,1004.07
2018-02-14T09:08:18.025Z,1004.08
2018-02-14T09:09:18.030Z,1004.09
2018-02-14T09:10:18.045Z,1004.11
2018-02-14T09:11:18.085Z,1004.09
2018-02-14T09:12:18.071Z,1004.08
2018-02-14T09:13:18.083Z,1004.10
2018-02-14T09:14:18.121Z,1004.12
2018-02-14T09:15:18.107Z,1004.11
2018-02-14T09:16:18.124Z,1004.10
2018-02-14T09:17:18.136Z,1004.14
2018-02-14T09:18:18.149Z,1004.11
2018-02-14T09:19:18.161Z,1004.12
2018-02-14T09:20:18.190Z,1004.08
2018-02-14T09:21:18.185Z,1004.05
2018-02-14T09:22:18.202Z,1004.04
2018-02-14T09:23:18.211Z,1004.03
2018-02-14T09:24:18.225Z,1004.03
2018-02-14T09:25:18.238Z,1004.03
2018-02-14T09:26:18.252Z,1004.01
2018-02-14T09:27:18.266Z,1004.03
2018-02-14T09:28:18.276Z,1004.03
2018-02-14T09:29:18.288Z,1004.11
2018-02-14T09:30:18.303Z,1004.12
2018-02-14T09:31:18.320Z,1004.11
2018-02-14T09:32:18.327Z,1004.10
2018-02-14T09:33:18.342Z,1004.09
2018-02-14T09:34:18.352Z,1004.11
2018-02-14T09:35:18.364Z,1004.09
2018-02-14T09:36:18.378Z,1004.12
2018-02-14T09:37:18.392Z,1004.07
2018-02-14T09:38:18.403Z,1004.07
2018-02-14T09:39:18.416Z,1004.09
2018-02-14T09:40:18.432Z,1004.06
2018-02-14T09:41:18.443Z,1004.09
2018-02-14T09:42:18.456Z,1004.10
2018-02-14T09:43:18.469Z,1004.10
2018-02-14T09:44:18.478Z,1004.11
2018-02-14T09:45:18.495Z,1004.14
2018-02-14T09:46:18.509Z,1004.13
2018-02-14T09:47:18.527Z,1004.18
2018-02-14T09:48:18.534Z,1004.13
2018-02-14T09:49:18.545Z,1004.16
2018-02-14T09:50:18.558Z,1004.17
2018-02-14T09:51:18.573Z,1004.16
2018-02-14T09:52:18.584Z,1004.21
2018-02-14T09:53:18.598Z,1004.20
2018-02-14T09:54:18.609Z,1004.21
2018-02-14T09:55:18.623Z,1004.22
2018-02-14T09:56:18.636Z,1004.18
2018-02-14T09:57:18.650Z,1004.20
2018-02-14T09:58:18.663Z,1004.20
2018-02-14T09:59:18.677Z,1004.19
2018-02-14T10:00:18.689Z,1004.20
2018-02-14T10:01:18.703Z,1004.16
2018-02-14T10:02:18.715Z,1004.13
2018-02-14T10:03:18.726Z,1004.18
2018-02-14T10:04:18.742Z,1004.24
2018-02-14T10:05:18.752Z,1004.25
2018-02-14T10:06:18.768Z,1004.28
2018-02-14T10:07:18.781Z,1004.28
2018-02-14T10:08:18.792Z,1004.29
2018-02-14T10:09:18.804Z,1004.34
2018-02-14T10:10:18.817Z,1004.37
2018-02-14T10:11:18.832Z,1004.36
2018-02-14T10:12:18.848Z,1004.33
2018-02-14T10:13:18.860Z,1004.37
2018-02-14T10:14:18.873Z,1004.34
2018-02-14T10:15:18.889Z,1004.37
2018-02-14T10:16:18.897Z,1004.34
2018-02-14T10:17:18.913Z,1004.33
2018-02-14T10:18:18.923Z,1004.33
2018-02-14T10:19:18.938Z,1004.34
2018-02-14T10:20:18.955Z,1004.39
2018-02-14T10:21:19.022Z,1004.32
2018-02-14T10:22:19.008Z,1004.36
2018-02-14T10:23:18.994Z,1004.39
2018-02-14T10:24:19.010Z,1004.34
2018-02-14T10:25:19.023Z,1004.35
2018-02-14T10:26:19.038Z,1004.35
2018-02-14T10:27:19.049Z,1004.27
2018-02-14T10:28:19.063Z,1004.31
2018-02-14T10:29:19.077Z,1004.26
2018-02-14T10:30:19.091Z,1004.22
2018-02-14T10:31:19.102Z,1004.19
2018-02-14T10:32:19.117Z,1004.24
2018-02-14T10:33:19.138Z,1004.25
2018-02-14T10:34:19.142Z,1004.19
2018-02-14T10:35:19.176Z,1004.23
2018-02-14T10:36:19.174Z,1004.20
2018-02-14T10:37:19.192Z,1004.20
2018-02-14T10:38:19.200Z,1004.19
2018-02-14T10:39:19.213Z,1004.19
2018-02-14T10:40:19.252Z,1004.20
2018-02-14T10:41:19.245Z,1004.17
2018-02-14T10:42:19.257Z,1004.21
2018-02-14T10:43:19.277Z,1004.19
2018-02-14T10:44:19.288Z,1004.23
2018-02-14T10:45:19.302Z,1004.23
2018-02-14T10:46:19.314Z,1004.18
2018-02-14T10:47:19.328Z,1004.20
2018-02-14T10:48:19.337Z,1004.23
2018-02-14T10:49:19.420Z,1004.21
2018-02-14T10:50:19.365Z,1004.20
2018-02-14T10:51:19.382Z,1004.17
2018-02-14T10:52:19.393Z,1004.21
2018-02-14T10:53:19.412Z,1004.20
2018-02-14T10:54:19.425Z,1004.20
2018-02-14T10:55:19.433Z,1004.20
2018-02-14T10:56:19.454Z,1004.16
2018-02-14T10:57:19.463Z,1004.21
2018-02-14T10:58:19.476Z,1004.15
2018-02-14T10:59:19.489Z,1004.20
2018-02-14T11:00:19.506Z,1004.19
2018-02-14T11:01:19.523Z,1004.21
2018-02-14T11:02:19.532Z,1004.16
2018-02-14T11:03:19.543Z,1004.16
2018-02-14T11:04:19.560Z,1004.13
2018-02-14T11:05:19.574Z,1004.11
2018-02-14T11:06:19.591Z,1004.12
2018-02-14T11:07:19.606Z,1004.07
2018-02-14T11:08:19.615Z,1004.11
2018-02-14T11:09:19.630Z,1004.06
2018-02-14T11:10:19.646Z,1004.12
2018-02-14T11:11:19.661Z,1004.11
2018-02-14T11:12:19.670Z,1004.19
2018-02-14T11:13:19.685Z,1004.19
2018-02-14T11:14:19.702Z,1004.23
2018-02-14T11:15:19.715Z,1004.24
2018-02-14T11:16:19.728Z,1004.25
2018-02-14T11:17:19.742Z,1004.25
2018-02-14T11:18:19.758Z,1004.29
2018-02-14T11:19:19.769Z,1004.31
2018-02-14T11:20:19.786Z,1004.33
2018-02-14T11:21:19.799Z,1004.30
2018-02-14T11:22:19.845Z,1004.38
2018-02-14T11:23:19.823Z,1004.33
2018-02-14T11:24:19.846Z,1004.29
2018-02-14T11:25:19.855Z,1004.27
2018-02-14T11:26:19.870Z,1004.23
2018-02-14T11:27:19.882Z,1004.23
2018-02-14T11:28:19.895Z,1004.20
2018-02-14T11:29:19.912Z,1004.21
2018-02-14T11:30:19.930Z,1004.16
2018-02-14T11:31:19.942Z,1004.20
2018-02-14T11:32:19.955Z,1004.20
2018-02-14T11:33:19.969Z,1004.20
2018-02-14T11:34:19.983Z,1004.18
2018-02-14T11:35:19.997Z,1004.17
2018-02-14T11:36:20.226Z,1004.20
2018-02-14T11:37:20.028Z,1004.19
2018-02-14T11:38:20.043Z,1004.14
2018-02-14T11:39:20.058Z,1004.17
2018-02-14T11:40:20.069Z,1004.20
2018-02-14T11:41:20.082Z,1004.16
2018-02-14T11:42:20.105Z,1004.12
2018-02-14T11:43:20.113Z,1004.16
2018-02-14T11:44:20.139Z,1004.19
2018-02-14T11:45:20.140Z,1004.16
2018-02-14T11:46:20.156Z,1004.11
2018-02-14T11:47:20.210Z,1004.12
2018-02-14T11:48:20.186Z,1004.10
2018-02-14T11:49:20.238Z,1004.06
2018-02-14T11:50:20.214Z,1004.05
2018-02-14T11:51:20.227Z,1004.06
2018-02-14T11:52:20.245Z,1004.03
2018-02-14T11:53:20.259Z,1004.09
2018-02-14T11:54:20.273Z,1004.01
2018-02-14T11:55:20.284Z,1003.99
2018-02-14T11:56:20.303Z,1003.98
2018-02-14T11:57:20.311Z,1003.98
2018-02-14T11:58:20.333Z,1003.95
2018-02-14T11:59:20.349Z,1003.98
2018-02-14T12:00:20.355Z,1004.01
2018-02-14T12:01:20.370Z,1003.99
2018-02-14T12:02:20.385Z,1004.00
2018-02-14T12:03:20.404Z,1004.04
2018-02-14T12:04:20.416Z,1004.02
2018-02-14T12:05:20.428Z,1004.01
2018-02-14T12:06:20.449Z,1004.15
2018-02-14T12:07:20.455Z,1004.14